Pagrindinis puslapis
METAR-TAF:

METAR-TAF

Oro uostai :

Hooper Bay, Aliaska, Jungtinės Amerikos Valstijos

platuma: 61-31N, ilguma: 166-08W, Aukštis: 5 m

Dabartinis oras

Ataskaita buvo paskelbta 38 minutes, ne 07:56 UTC
Vėjas 18 kt iš Šiaurės/Šiaurės Vakarų
Temperatūra 11°C
Drėgmė 87%
Slėgis 1008 hPa
Matomumas: 16.1 km
Apsiniaukę ne aukštis 1200 ft

METAR: PAHP 160756Z AUTO 33018KT 10SM OVC012 11/09 A2978 RMK AO2 SLP121 T01060089 PNO $

Laikas: 00:34 (08:34 UTC)


TAF: trūkstamas

Orai ataskaitas ir orų prognozės (METAR, TAF).

turimą stotys yra geltonos ir raudonos taškus žemėlapyje.

Perkelti pele per norėdami pamatyti stoties vardą.

Tada spustelėkite, norėdami matyti oro stebėjimo ir prognozės.

Norėdami pakeisti žemėlapį: spustelėkite ant žalios mygtukų su juodo kryžiaus žemyn,; žalią mygtuką su brūkšneliu, jei norite nutolinti; arba žalių rodyklių gretimoms žemėlapius.


METAR-TAF: